< < Back
Terminal Aerodrome Forecast


Current Version              Previous Versions:   1  2  3  4  5  6  7  8  9  

Terminal Aerodrome Forecast

024
FTUS44 KOHX 140521
TAFCSV
TAF
KCSV 140521Z 1406/1506 08007KT P6SM OVC090
     FM141800 14007KT 6SM -SHSN BR OVC040
     FM142100 15008KT 3SM -SHSN BR OVC015
     FM150300 17007KT 4SM -SHSNPL BR OVC010=

Latest METAR

252
SAUS70 KWBC 142300 RRA
MTRCSV
METAR KCSV 142253Z AUTO 16010G17KT 10SM OVC034 M01/M08 A3006 RMK AO2
UPE2159 SLP197 P0000 I1000 T10111083


USA.gov is the U.S. government's official web portal to all federal, state and local government web resources and services.